createdAt,value
2022-12-11T00:00:54.000Z,97708
2022-12-11T00:02:19.000Z,97711
2022-12-11T00:04:22.000Z,97713
2022-12-11T00:05:47.000Z,97718
2022-12-11T00:07:50.000Z,97718
2022-12-11T00:09:15.000Z,97712
2022-12-11T00:11:18.000Z,97718
2022-12-11T00:12:43.000Z,97719
2022-12-11T00:14:46.000Z,97716
2022-12-11T00:17:35.000Z,97713
2022-12-11T00:19:00.000Z,97712
2022-12-11T00:21:03.000Z,97715
2022-12-11T00:22:28.000Z,97716
2022-12-11T00:24:31.000Z,97718
2022-12-11T00:25:55.000Z,97719
2022-12-11T00:27:59.000Z,97722
2022-12-11T00:29:24.000Z,97720
2022-12-11T00:31:27.000Z,97727
2022-12-11T00:32:51.000Z,97723
2022-12-11T00:34:55.000Z,97721
2022-12-11T00:36:19.000Z,97725
2022-12-11T00:38:23.000Z,97724
2022-12-11T00:39:47.000Z,97726
2022-12-11T00:41:51.000Z,97726
2022-12-11T00:43:15.000Z,97727
2022-12-11T00:45:19.000Z,97727
2022-12-11T00:46:43.000Z,97730
2022-12-11T00:48:47.000Z,97730
2022-12-11T00:50:11.000Z,97726
2022-12-11T00:52:14.000Z,97730
2022-12-11T00:55:03.000Z,97736
2022-12-11T00:56:28.000Z,97736
2022-12-11T00:58:31.000Z,97730
2022-12-11T00:59:55.000Z,97733
2022-12-11T01:01:59.000Z,97737
2022-12-11T01:03:23.000Z,97735
2022-12-11T01:05:27.000Z,97733
2022-12-11T01:06:51.000Z,97736
2022-12-11T01:08:55.000Z,97734
2022-12-11T01:10:19.000Z,97737
2022-12-11T01:12:23.000Z,97736
2022-12-11T01:13:47.000Z,97734
2022-12-11T01:15:50.000Z,97738
2022-12-11T01:17:15.000Z,97736
2022-12-11T01:19:18.000Z,97741
2022-12-11T01:20:43.000Z,97740
2022-12-11T01:22:46.000Z,97740
2022-12-11T01:24:11.000Z,97742
2022-12-11T01:26:14.000Z,97741
2022-12-11T01:27:38.000Z,97740
2022-12-11T01:29:42.000Z,97737
2022-12-11T01:32:31.000Z,97737
2022-12-11T01:33:55.000Z,97741
2022-12-11T01:35:59.000Z,97737
2022-12-11T01:37:23.000Z,97734
2022-12-11T01:39:27.000Z,97735
2022-12-11T01:40:51.000Z,97736
2022-12-11T01:42:54.000Z,97736
2022-12-11T01:44:19.000Z,97734
2022-12-11T01:46:22.000Z,97738
2022-12-11T01:47:47.000Z,97742
2022-12-11T01:49:50.000Z,97742
2022-12-11T01:51:15.000Z,97741
2022-12-11T01:53:18.000Z,97743
2022-12-11T01:54:42.000Z,97743
2022-12-11T01:56:46.000Z,97742
2022-12-11T01:58:10.000Z,97743
2022-12-11T02:00:13.000Z,97748
2022-12-11T02:01:38.000Z,97753
2022-12-11T02:03:41.000Z,97748
2022-12-11T02:05:06.000Z,97750
2022-12-11T02:07:09.000Z,97753
2022-12-11T02:11:31.000Z,97743
2022-12-11T02:13:27.000Z,97743
2022-12-11T02:14:51.000Z,97739
2022-12-11T02:16:54.000Z,97733
2022-12-11T02:18:19.000Z,97733
2022-12-11T02:20:22.000Z,97733
2022-12-11T02:21:47.000Z,97730
2022-12-11T02:23:50.000Z,97730
2022-12-11T02:25:14.000Z,97729
2022-12-11T02:27:18.000Z,97728
2022-12-11T02:28:42.000Z,97731
2022-12-11T02:30:46.000Z,97733
2022-12-11T02:32:10.000Z,97731
2022-12-11T02:34:14.000Z,97730
2022-12-11T02:35:38.000Z,97729
2022-12-11T02:37:41.000Z,97719
2022-12-11T02:39:06.000Z,97721
2022-12-11T02:41:09.000Z,97720
2022-12-11T02:42:34.000Z,97720
2022-12-11T02:44:37.000Z,97723
2022-12-11T02:46:02.000Z,97723
2022-12-11T02:48:05.000Z,97726
2022-12-11T02:52:27.000Z,97727
2022-12-11T02:53:01.000Z,97727
2022-12-11T02:54:25.000Z,97726
2022-12-11T02:56:29.000Z,97724
2022-12-11T02:57:53.000Z,97723
2022-12-11T02:59:57.000Z,97723
2022-12-11T03:01:21.000Z,97725
2022-12-11T03:03:25.000Z,97726
2022-12-11T03:04:49.000Z,97730
2022-12-11T03:06:53.000Z,97728
2022-12-11T03:08:17.000Z,97728
2022-12-11T03:10:21.000Z,97726
2022-12-11T03:11:45.000Z,97721
2022-12-11T03:13:48.000Z,97722
2022-12-11T03:15:13.000Z,97726
2022-12-11T03:17:16.000Z,97728
2022-12-11T03:18:41.000Z,97724
2022-12-11T03:20:44.000Z,97721
2022-12-11T03:22:09.000Z,97722
2022-12-11T03:24:12.000Z,97722
2022-12-11T03:25:37.000Z,97725
2022-12-11T03:27:40.000Z,97723
2022-12-11T03:30:23.000Z,97729
2022-12-11T03:31:48.000Z,97731
2022-12-11T03:33:51.000Z,97740
2022-12-11T03:35:16.000Z,97736
2022-12-11T03:37:19.000Z,97740
2022-12-11T03:38:44.000Z,97740
2022-12-11T03:40:47.000Z,97740
2022-12-11T03:42:12.000Z,97738
2022-12-11T03:44:15.000Z,97744
2022-12-11T03:45:39.000Z,97747
2022-12-11T03:47:43.000Z,97746
2022-12-11T03:49:07.000Z,97743
2022-12-11T03:51:11.000Z,97744
2022-12-11T03:52:35.000Z,97742
2022-12-11T03:54:45.000Z,97739
2022-12-11T03:56:10.000Z,97744
2022-12-11T03:58:13.000Z,97744
2022-12-11T03:59:38.000Z,97747
2022-12-11T04:01:41.000Z,97748
2022-12-11T04:03:06.000Z,97743
2022-12-11T04:05:17.000Z,97739
2022-12-11T04:08:06.000Z,97740
2022-12-11T04:09:30.000Z,97740
2022-12-11T04:11:34.000Z,97742
2022-12-11T04:12:58.000Z,97745
2022-12-11T04:15:02.000Z,97743
2022-12-11T04:16:26.000Z,97741
2022-12-11T04:18:29.000Z,97737
2022-12-11T04:19:54.000Z,97735
2022-12-11T04:21:57.000Z,97733
2022-12-11T04:23:22.000Z,97734
2022-12-11T04:25:25.000Z,97739
2022-12-11T04:26:49.000Z,97737
2022-12-11T04:28:53.000Z,97738
2022-12-11T04:30:17.000Z,97736
2022-12-11T04:32:21.000Z,97734
2022-12-11T04:33:45.000Z,97737
2022-12-11T04:35:49.000Z,97736
2022-12-11T04:37:13.000Z,97737
2022-12-11T04:39:17.000Z,97729
2022-12-11T04:40:41.000Z,97732
2022-12-11T04:42:44.000Z,97729
2022-12-11T04:47:06.000Z,97717
2022-12-11T04:47:40.000Z,97715
2022-12-11T04:49:04.000Z,97716
2022-12-11T04:51:08.000Z,97714
2022-12-11T04:52:32.000Z,97709
2022-12-11T04:54:36.000Z,97711
2022-12-11T04:56:00.000Z,97709
2022-12-11T04:58:03.000Z,97708
2022-12-11T04:59:28.000Z,97710
2022-12-11T05:01:31.000Z,97717
2022-12-11T05:02:56.000Z,97720
2022-12-11T05:04:59.000Z,97724
2022-12-11T05:06:24.000Z,97722
2022-12-11T05:08:27.000Z,97725
2022-12-11T05:09:51.000Z,97726
2022-12-11T05:11:55.000Z,97731
2022-12-11T05:13:19.000Z,97729
2022-12-11T05:15:23.000Z,97733
2022-12-11T05:16:47.000Z,97734
2022-12-11T05:18:51.000Z,97732
2022-12-11T05:20:15.000Z,97730
2022-12-11T05:22:19.000Z,97727
2022-12-11T05:25:02.000Z,97723
2022-12-11T05:26:26.000Z,97725
2022-12-11T05:28:30.000Z,97722
2022-12-11T05:29:54.000Z,97726
2022-12-11T05:32:03.000Z,97725
2022-12-11T05:33:27.000Z,97726
2022-12-11T05:35:30.000Z,97723
2022-12-11T05:36:55.000Z,97724
2022-12-11T05:38:58.000Z,97723
2022-12-11T05:40:23.000Z,97718
2022-12-11T05:42:26.000Z,97723
2022-12-11T05:43:53.000Z,97720
2022-12-11T05:45:56.000Z,97720
2022-12-11T05:47:21.000Z,97717
2022-12-11T05:49:24.000Z,97715
2022-12-11T05:50:55.000Z,97715
2022-12-11T05:52:58.000Z,97714
2022-12-11T05:54:23.000Z,97716
2022-12-11T05:56:26.000Z,97720
2022-12-11T05:57:51.000Z,97724
2022-12-11T05:59:54.000Z,97721
2022-12-11T06:02:43.000Z,97725
2022-12-11T06:04:08.000Z,97722
2022-12-11T06:06:12.000Z,97716
2022-12-11T06:07:36.000Z,97717
2022-12-11T06:09:39.000Z,97711
2022-12-11T06:11:04.000Z,97711
2022-12-11T06:13:07.000Z,97710
2022-12-11T06:14:32.000Z,97706
2022-12-11T06:16:35.000Z,97704
2022-12-11T06:18:00.000Z,97704
2022-12-11T06:20:03.000Z,97701
2022-12-11T06:21:28.000Z,97700
2022-12-11T06:23:31.000Z,97698
2022-12-11T06:24:55.000Z,97700
2022-12-11T06:26:59.000Z,97696
2022-12-11T06:28:23.000Z,97693
2022-12-11T06:30:27.000Z,97695
2022-12-11T06:32:03.000Z,97690
2022-12-11T06:34:07.000Z,97689
2022-12-11T06:35:31.000Z,97687
2022-12-11T06:37:37.000Z,97686
2022-12-11T06:40:27.000Z,97684
2022-12-11T06:41:51.000Z,97687
2022-12-11T06:43:54.000Z,97683
2022-12-11T06:45:19.000Z,97681
2022-12-11T06:47:22.000Z,97680
2022-12-11T06:48:47.000Z,97681
2022-12-11T06:50:50.000Z,97676
2022-12-11T06:52:14.000Z,97674
2022-12-11T06:54:22.000Z,97675
2022-12-11T06:55:46.000Z,97676
2022-12-11T06:57:50.000Z,97679
2022-12-11T06:59:14.000Z,97679
2022-12-11T07:01:17.000Z,97680
2022-12-11T07:02:42.000Z,97681
2022-12-11T07:04:45.000Z,97682
2022-12-11T07:06:16.000Z,97678
2022-12-11T07:08:19.000Z,97673
2022-12-11T07:09:43.000Z,97671
2022-12-11T07:11:47.000Z,97670
2022-12-11T07:13:11.000Z,97672
2022-12-11T07:15:15.000Z,97668
2022-12-11T07:18:04.000Z,97668
2022-12-11T07:19:28.000Z,97668
2022-12-11T07:21:32.000Z,97668
2022-12-11T07:22:56.000Z,97671
2022-12-11T07:25:00.000Z,97669
2022-12-11T07:26:24.000Z,97671
2022-12-11T07:28:27.000Z,97675
2022-12-11T07:29:52.000Z,97678
2022-12-11T07:31:55.000Z,97681
2022-12-11T07:33:20.000Z,97676
2022-12-11T07:35:23.000Z,97680
2022-12-11T07:36:48.000Z,97680
2022-12-11T07:38:51.000Z,97678
2022-12-11T07:40:16.000Z,97678
2022-12-11T07:42:19.000Z,97676
2022-12-11T07:43:44.000Z,97677
2022-12-11T07:45:47.000Z,97676
2022-12-11T07:47:11.000Z,97678
2022-12-11T07:49:15.000Z,97678
2022-12-11T07:50:39.000Z,97672
2022-12-11T07:52:43.000Z,97674
2022-12-11T07:55:32.000Z,97676
2022-12-11T07:56:57.000Z,97678
2022-12-11T07:59:00.000Z,97673
2022-12-11T08:00:24.000Z,97681
2022-12-11T08:02:28.000Z,97676
2022-12-11T08:03:59.000Z,97674
2022-12-11T08:06:03.000Z,97668
2022-12-11T08:07:27.000Z,97673
2022-12-11T08:09:31.000Z,97672
2022-12-11T08:10:55.000Z,97673
2022-12-11T08:12:58.000Z,97672
2022-12-11T08:14:23.000Z,97673
2022-12-11T08:16:26.000Z,97671
2022-12-11T08:17:51.000Z,97674
2022-12-11T08:19:54.000Z,97675
2022-12-11T08:21:19.000Z,97674
2022-12-11T08:23:22.000Z,97674
2022-12-11T08:24:47.000Z,97676
2022-12-11T08:26:50.000Z,97676
2022-12-11T08:28:14.000Z,97674
2022-12-11T08:30:18.000Z,97670
2022-12-11T08:33:07.000Z,97670
2022-12-11T08:34:31.000Z,97667
2022-12-11T08:36:35.000Z,97668
2022-12-11T08:37:59.000Z,97673
2022-12-11T08:40:03.000Z,97673
2022-12-11T08:41:27.000Z,97671
2022-12-11T08:43:31.000Z,97676
2022-12-11T08:44:55.000Z,97675
2022-12-11T08:46:58.000Z,97679
2022-12-11T08:48:23.000Z,97676
2022-12-11T08:50:26.000Z,97674
2022-12-11T08:51:51.000Z,97672
2022-12-11T08:53:54.000Z,97672
2022-12-11T08:55:19.000Z,97677
2022-12-11T08:57:22.000Z,97675
2022-12-11T08:58:46.000Z,97674
2022-12-11T09:00:50.000Z,97676
2022-12-11T09:02:14.000Z,97674
2022-12-11T09:04:18.000Z,97673
2022-12-11T09:05:42.000Z,97671
2022-12-11T09:07:46.000Z,97675
2022-12-11T09:10:35.000Z,97678
2022-12-11T09:11:59.000Z,97681
2022-12-11T09:14:03.000Z,97681
2022-12-11T09:15:31.000Z,97683
2022-12-11T09:17:35.000Z,97683
2022-12-11T09:18:59.000Z,97684
2022-12-11T09:21:03.000Z,97686
2022-12-11T09:22:27.000Z,97688
2022-12-11T09:24:31.000Z,97687
2022-12-11T09:25:55.000Z,97688
2022-12-11T09:27:59.000Z,97691
2022-12-11T09:29:23.000Z,97692
2022-12-11T09:31:26.000Z,97691
2022-12-11T09:32:51.000Z,97694
2022-12-11T09:34:54.000Z,97695
2022-12-11T09:36:19.000Z,97697
2022-12-11T09:38:22.000Z,97694
2022-12-11T09:39:47.000Z,97693
2022-12-11T09:41:50.000Z,97692
2022-12-11T09:43:15.000Z,97690
2022-12-11T09:45:18.000Z,97690
2022-12-11T09:48:07.000Z,97688
2022-12-11T09:49:32.000Z,97689
2022-12-11T09:51:35.000Z,97688
2022-12-11T09:53:00.000Z,97691
2022-12-11T09:55:03.000Z,97695
2022-12-11T09:56:27.000Z,97694
2022-12-11T09:58:31.000Z,97692
2022-12-11T09:59:55.000Z,97688
2022-12-11T10:02:07.000Z,97689
2022-12-11T10:03:32.000Z,97685
2022-12-11T10:05:35.000Z,97685
2022-12-11T10:07:00.000Z,97683
2022-12-11T10:09:03.000Z,97682
2022-12-11T10:10:27.000Z,97682
2022-12-11T10:12:31.000Z,97677
2022-12-11T10:13:55.000Z,97674
2022-12-11T10:15:59.000Z,97665
2022-12-11T10:17:23.000Z,97664
2022-12-11T10:19:27.000Z,97661
2022-12-11T10:20:51.000Z,97662
2022-12-11T10:22:55.000Z,97661
2022-12-11T10:25:44.000Z,97652
2022-12-11T10:27:08.000Z,97654
2022-12-11T10:29:12.000Z,97652
2022-12-11T10:30:36.000Z,97648
2022-12-11T10:32:40.000Z,97648
2022-12-11T10:34:04.000Z,97650
2022-12-11T10:36:08.000Z,97645
2022-12-11T10:37:32.000Z,97643
2022-12-11T10:39:36.000Z,97644
2022-12-11T10:41:00.000Z,97637
2022-12-11T10:43:04.000Z,97636
2022-12-11T10:44:28.000Z,97639
2022-12-11T10:46:31.000Z,97637
2022-12-11T10:47:56.000Z,97636
2022-12-11T10:49:59.000Z,97635
2022-12-11T10:51:24.000Z,97636
2022-12-11T10:53:27.000Z,97631
2022-12-11T10:54:52.000Z,97628
2022-12-11T10:56:55.000Z,97625
2022-12-11T10:58:20.000Z,97625
2022-12-11T11:00:23.000Z,97625
2022-12-11T11:03:12.000Z,97621
2022-12-11T11:04:37.000Z,97619
2022-12-11T11:06:40.000Z,97618
2022-12-11T11:08:05.000Z,97616
2022-12-11T11:10:08.000Z,97609
2022-12-11T11:11:33.000Z,97608
2022-12-11T11:13:37.000Z,97607
2022-12-11T11:15:02.000Z,97609
2022-12-11T11:17:05.000Z,97606
2022-12-11T11:18:30.000Z,97601
2022-12-11T11:20:33.000Z,97600
2022-12-11T11:21:58.000Z,97597
2022-12-11T11:24:01.000Z,97597
2022-12-11T11:25:26.000Z,97598
2022-12-11T11:27:29.000Z,97598
2022-12-11T11:28:54.000Z,97595
2022-12-11T11:30:57.000Z,97593
2022-12-11T11:32:22.000Z,97596
2022-12-11T11:34:25.000Z,97597
2022-12-11T11:35:50.000Z,97596
2022-12-11T11:37:53.000Z,97597
2022-12-11T11:42:15.000Z,97589
2022-12-11T11:44:21.000Z,97593
2022-12-11T11:46:28.000Z,97593
2022-12-11T11:48:34.000Z,97591
2022-12-11T11:50:28.000Z,97592
2022-12-11T11:51:53.000Z,97593
2022-12-11T11:53:56.000Z,97589
2022-12-11T11:55:21.000Z,97592
2022-12-11T11:58:59.000Z,97589
2022-12-11T11:59:32.000Z,97588
2022-12-11T12:00:57.000Z,97587
2022-12-11T12:03:00.000Z,97587
2022-12-11T12:04:25.000Z,97585
2022-12-11T12:06:28.000Z,97589
2022-12-11T12:07:53.000Z,97586
2022-12-11T12:09:56.000Z,97592
2022-12-11T12:11:21.000Z,97590
2022-12-11T12:13:24.000Z,97593
2022-12-11T12:15:13.000Z,97590
2022-12-11T12:17:17.000Z,97590
2022-12-11T12:18:42.000Z,97593
2022-12-11T12:20:45.000Z,97590
2022-12-11T12:22:09.000Z,97591
2022-12-11T12:24:13.000Z,97585
2022-12-11T12:25:37.000Z,97592
2022-12-11T12:27:41.000Z,97589
2022-12-11T12:30:35.000Z,97588
2022-12-11T12:32:00.000Z,97589
2022-12-11T12:34:03.000Z,97589
2022-12-11T12:35:27.000Z,97588
2022-12-11T12:37:31.000Z,97588
2022-12-11T12:38:55.000Z,97588
2022-12-11T12:40:59.000Z,97586
2022-12-11T12:42:23.000Z,97589
2022-12-11T12:44:27.000Z,97581
2022-12-11T12:45:51.000Z,97581
2022-12-11T12:47:55.000Z,97575
2022-12-11T12:49:19.000Z,97572
2022-12-11T12:51:22.000Z,97575
2022-12-11T12:52:47.000Z,97572
2022-12-11T12:54:50.000Z,97573
2022-12-11T12:56:15.000Z,97567
2022-12-11T12:58:18.000Z,97565
2022-12-11T12:59:43.000Z,97563
2022-12-11T13:01:46.000Z,97564
2022-12-11T13:03:11.000Z,97564
2022-12-11T13:05:14.000Z,97564
2022-12-11T13:08:03.000Z,97565
2022-12-11T13:09:28.000Z,97565
2022-12-11T13:11:31.000Z,97565
2022-12-11T13:12:56.000Z,97563
2022-12-11T13:14:59.000Z,97566
2022-12-11T13:16:24.000Z,97565
2022-12-11T13:18:27.000Z,97563
2022-12-11T13:19:52.000Z,97562
2022-12-11T13:21:55.000Z,97565
2022-12-11T13:23:19.000Z,97569
2022-12-11T13:25:23.000Z,97570
2022-12-11T13:26:47.000Z,97572
2022-12-11T13:28:51.000Z,97574
2022-12-11T13:30:15.000Z,97576
2022-12-11T13:32:19.000Z,97577
2022-12-11T13:33:43.000Z,97577
2022-12-11T13:35:46.000Z,97574
2022-12-11T13:37:11.000Z,97578
2022-12-11T13:39:14.000Z,97581
2022-12-11T13:40:39.000Z,97580
2022-12-11T13:42:42.000Z,97579
2022-12-11T13:47:04.000Z,97579
2022-12-11T13:49:10.000Z,97575
2022-12-11T13:51:11.000Z,97571
2022-12-11T13:52:35.000Z,97575
2022-12-11T13:54:39.000Z,97578
2022-12-11T13:56:03.000Z,97579
2022-12-11T13:58:07.000Z,97576
2022-12-11T13:59:31.000Z,97579
2022-12-11T14:01:35.000Z,97578
2022-12-11T14:02:59.000Z,97578
2022-12-11T14:05:03.000Z,97578
2022-12-11T14:06:27.000Z,97580
2022-12-11T14:08:30.000Z,97583
2022-12-11T14:09:55.000Z,97583
2022-12-11T14:11:58.000Z,97584
2022-12-11T14:13:23.000Z,97583
2022-12-11T14:15:26.000Z,97580
2022-12-11T14:16:51.000Z,97579
2022-12-11T14:18:54.000Z,97582
2022-12-11T14:20:19.000Z,97582
2022-12-11T14:22:22.000Z,97583
2022-12-11T14:23:47.000Z,97586
2022-12-11T14:25:50.000Z,97588
2022-12-11T14:28:39.000Z,97593
2022-12-11T14:30:04.000Z,97597
2022-12-11T14:32:07.000Z,97597
2022-12-11T14:33:32.000Z,97598
2022-12-11T14:35:35.000Z,97598
2022-12-11T14:37:03.000Z,97595
2022-12-11T14:39:06.000Z,97596
2022-12-11T14:40:31.000Z,97597
2022-12-11T14:42:34.000Z,97601
2022-12-11T14:43:59.000Z,97596
2022-12-11T14:46:02.000Z,97594
2022-12-11T14:47:27.000Z,97592
2022-12-11T14:49:30.000Z,97592
2022-12-11T14:50:55.000Z,97591
2022-12-11T14:52:58.000Z,97597
2022-12-11T14:54:23.000Z,97597
2022-12-11T14:56:26.000Z,97596
2022-12-11T14:57:51.000Z,97597
2022-12-11T14:59:54.000Z,97596
2022-12-11T15:01:18.000Z,97598
2022-12-11T15:03:22.000Z,97600
2022-12-11T15:06:11.000Z,97602
2022-12-11T15:07:36.000Z,97600
2022-12-11T15:09:39.000Z,97597
2022-12-11T15:11:03.000Z,97601
2022-12-11T15:13:07.000Z,97601
2022-12-11T15:14:31.000Z,97601
2022-12-11T15:16:35.000Z,97601
2022-12-11T15:17:59.000Z,97602
2022-12-11T15:20:03.000Z,97600
2022-12-11T15:21:27.000Z,97602
2022-12-11T15:23:31.000Z,97602
2022-12-11T15:24:55.000Z,97598
2022-12-11T15:26:59.000Z,97598
2022-12-11T15:28:23.000Z,97597
2022-12-11T15:30:26.000Z,97599
2022-12-11T15:31:51.000Z,97605
2022-12-11T15:33:54.000Z,97602
2022-12-11T15:35:19.000Z,97602
2022-12-11T15:37:22.000Z,97599
2022-12-11T15:38:47.000Z,97603
2022-12-11T15:40:50.000Z,97607
2022-12-11T15:43:40.000Z,97606
2022-12-11T15:45:04.000Z,97607
2022-12-11T15:47:08.000Z,97614
2022-12-11T15:48:32.000Z,97611
2022-12-11T15:50:35.000Z,97615
2022-12-11T15:52:00.000Z,97618
2022-12-11T15:54:03.000Z,97621
2022-12-11T15:55:28.000Z,97617
2022-12-11T15:57:31.000Z,97618
2022-12-11T15:58:56.000Z,97616
2022-12-11T16:00:59.000Z,97616
2022-12-11T16:02:24.000Z,97620
2022-12-11T16:04:27.000Z,97620
2022-12-11T16:05:52.000Z,97619
2022-12-11T16:07:55.000Z,97624
2022-12-11T16:09:20.000Z,97623
2022-12-11T16:11:23.000Z,97623
2022-12-11T16:12:48.000Z,97617
2022-12-11T16:14:51.000Z,97619
2022-12-11T16:16:16.000Z,97618
2022-12-11T16:18:19.000Z,97621
2022-12-11T16:21:08.000Z,97623
2022-12-11T16:22:33.000Z,97623
2022-12-11T16:24:36.000Z,97627
2022-12-11T16:26:01.000Z,97627
2022-12-11T16:28:04.000Z,97623
2022-12-11T16:29:29.000Z,97623
2022-12-11T16:31:32.000Z,97625
2022-12-11T16:32:56.000Z,97625
2022-12-11T16:35:00.000Z,97627
2022-12-11T16:36:24.000Z,97626
2022-12-11T16:38:28.000Z,97627
2022-12-11T16:39:52.000Z,97633
2022-12-11T16:41:56.000Z,97633
2022-12-11T16:43:20.000Z,97632
2022-12-11T16:45:23.000Z,97629
2022-12-11T16:46:48.000Z,97628
2022-12-11T16:48:51.000Z,97628
2022-12-11T16:50:16.000Z,97629
2022-12-11T16:52:19.000Z,97633
2022-12-11T16:53:46.000Z,97632
2022-12-11T16:55:50.000Z,97631
2022-12-11T16:58:39.000Z,97631
2022-12-11T17:00:03.000Z,97636
2022-12-11T17:02:07.000Z,97636
2022-12-11T17:03:31.000Z,97633
2022-12-11T17:05:35.000Z,97630
2022-12-11T17:06:59.000Z,97631
2022-12-11T17:09:03.000Z,97625
2022-12-11T17:10:27.000Z,97625
2022-12-11T17:12:31.000Z,97622
2022-12-11T17:13:55.000Z,97625
2022-12-11T17:15:58.000Z,97628
2022-12-11T17:17:23.000Z,97625
2022-12-11T17:19:26.000Z,97628
2022-12-11T17:20:51.000Z,97626
2022-12-11T17:22:54.000Z,97625
2022-12-11T17:24:19.000Z,97621
2022-12-11T17:26:22.000Z,97620
2022-12-11T17:27:47.000Z,97621
2022-12-11T17:29:50.000Z,97620
2022-12-11T17:31:15.000Z,97621
2022-12-11T17:33:18.000Z,97617
2022-12-11T17:36:08.000Z,97617
2022-12-11T17:37:32.000Z,97619
2022-12-11T17:39:35.000Z,97614
2022-12-11T17:41:00.000Z,97618
2022-12-11T17:43:03.000Z,97620
2022-12-11T17:44:28.000Z,97617
2022-12-11T17:46:31.000Z,97619
2022-12-11T17:47:55.000Z,97618
2022-12-11T17:49:59.000Z,97617
2022-12-11T17:51:23.000Z,97616
2022-12-11T17:53:27.000Z,97616
2022-12-11T17:54:52.000Z,97616
2022-12-11T17:56:55.000Z,97616
2022-12-11T17:58:19.000Z,97614
2022-12-11T18:00:23.000Z,97614
2022-12-11T18:01:50.000Z,97616
2022-12-11T18:03:54.000Z,97614
2022-12-11T18:05:18.000Z,97618
2022-12-11T18:07:22.000Z,97614
2022-12-11T18:08:46.000Z,97615
2022-12-11T18:10:50.000Z,97614
2022-12-11T18:13:39.000Z,97611
2022-12-11T18:15:03.000Z,97614
2022-12-11T18:17:07.000Z,97612
2022-12-11T18:18:31.000Z,97609
2022-12-11T18:20:35.000Z,97613
2022-12-11T18:21:59.000Z,97613
2022-12-11T18:24:03.000Z,97612
2022-12-11T18:25:27.000Z,97614
2022-12-11T18:27:31.000Z,97616
2022-12-11T18:28:55.000Z,97617
2022-12-11T18:30:59.000Z,97619
2022-12-11T18:32:23.000Z,97617
2022-12-11T18:34:26.000Z,97619
2022-12-11T18:35:51.000Z,97624
2022-12-11T18:37:54.000Z,97620
2022-12-11T18:39:19.000Z,97622
2022-12-11T18:41:22.000Z,97620
2022-12-11T18:42:47.000Z,97625
2022-12-11T18:44:50.000Z,97626
2022-12-11T18:46:15.000Z,97625
2022-12-11T18:48:18.000Z,97623
2022-12-11T18:51:07.000Z,97624
2022-12-11T18:52:32.000Z,97626
2022-12-11T18:54:35.000Z,97628
2022-12-11T18:56:00.000Z,97629
2022-12-11T18:58:04.000Z,97628
2022-12-11T18:59:28.000Z,97624
2022-12-11T19:01:32.000Z,97625
2022-12-11T19:02:56.000Z,97626
2022-12-11T19:05:00.000Z,97623
2022-12-11T19:06:24.000Z,97621
2022-12-11T19:08:28.000Z,97616
2022-12-11T19:09:52.000Z,97617
2022-12-11T19:11:56.000Z,97614
2022-12-11T19:13:20.000Z,97615
2022-12-11T19:15:23.000Z,97619
2022-12-11T19:16:48.000Z,97620
2022-12-11T19:18:52.000Z,97619
2022-12-11T19:20:16.000Z,97623
2022-12-11T19:22:52.000Z,97617
2022-12-11T19:24:16.000Z,97618
2022-12-11T19:26:20.000Z,97611
2022-12-11T19:29:09.000Z,97615
2022-12-11T19:30:33.000Z,97621
2022-12-11T19:32:37.000Z,97618
2022-12-11T19:34:01.000Z,97616
2022-12-11T19:36:04.000Z,97614
2022-12-11T19:37:29.000Z,97616
2022-12-11T19:39:32.000Z,97614
2022-12-11T19:40:57.000Z,97616
2022-12-11T19:43:00.000Z,97615
2022-12-11T19:44:25.000Z,97617
2022-12-11T19:46:28.000Z,97625
2022-12-11T19:47:53.000Z,97630
2022-12-11T19:49:56.000Z,97634
2022-12-11T19:51:20.000Z,97629
2022-12-11T19:53:24.000Z,97627
2022-12-11T19:54:49.000Z,97626
2022-12-11T19:56:52.000Z,97620
2022-12-11T19:58:16.000Z,97629
2022-12-11T20:00:20.000Z,97629
2022-12-11T20:01:44.000Z,97628
2022-12-11T20:03:48.000Z,97627
2022-12-11T20:06:37.000Z,97626
2022-12-11T20:08:01.000Z,97630
2022-12-11T20:10:46.000Z,97630
2022-12-11T20:12:11.000Z,97629
2022-12-11T20:14:14.000Z,97628
2022-12-11T20:15:39.000Z,97628
2022-12-11T20:17:42.000Z,97628
2022-12-11T20:19:07.000Z,97627
2022-12-11T20:21:10.000Z,97626
2022-12-11T20:22:34.000Z,97626
2022-12-11T20:24:38.000Z,97626
2022-12-11T20:26:02.000Z,97626
2022-12-11T20:28:06.000Z,97632
2022-12-11T20:29:30.000Z,97630
2022-12-11T20:31:34.000Z,97632
2022-12-11T20:32:58.000Z,97637
2022-12-11T20:35:02.000Z,97634
2022-12-11T20:36:26.000Z,97634
2022-12-11T20:38:30.000Z,97634
2022-12-11T20:39:58.000Z,97633
2022-12-11T20:42:02.000Z,97629
2022-12-11T20:44:51.000Z,97630
2022-12-11T20:46:16.000Z,97631
2022-12-11T20:48:19.000Z,97632
2022-12-11T20:49:43.000Z,97632
2022-12-11T20:51:47.000Z,97628
2022-12-11T20:53:11.000Z,97633
2022-12-11T20:55:15.000Z,97630
2022-12-11T20:56:39.000Z,97628
2022-12-11T20:58:43.000Z,97625
2022-12-11T21:00:07.000Z,97627
2022-12-11T21:02:10.000Z,97627
2022-12-11T21:03:35.000Z,97622
2022-12-11T21:05:45.000Z,97622
2022-12-11T21:07:09.000Z,97623
2022-12-11T21:09:13.000Z,97622
2022-12-11T21:10:37.000Z,97619
2022-12-11T21:12:41.000Z,97622
2022-12-11T21:14:05.000Z,97621
2022-12-11T21:16:09.000Z,97620
2022-12-11T21:17:33.000Z,97620
2022-12-11T21:19:37.000Z,97616
2022-12-11T21:22:26.000Z,97611
2022-12-11T21:23:50.000Z,97613
2022-12-11T21:25:54.000Z,97613
2022-12-11T21:27:18.000Z,97611
2022-12-11T21:29:22.000Z,97612
2022-12-11T21:30:46.000Z,97612
2022-12-11T21:32:49.000Z,97613
2022-12-11T21:34:14.000Z,97617
2022-12-11T21:36:17.000Z,97616
2022-12-11T21:37:42.000Z,97617
2022-12-11T21:39:45.000Z,97614
2022-12-11T21:41:10.000Z,97619
2022-12-11T21:43:13.000Z,97619
2022-12-11T21:44:37.000Z,97622
2022-12-11T21:48:03.000Z,97621
2022-12-11T21:49:28.000Z,97620
2022-12-11T21:51:31.000Z,97619
2022-12-11T21:53:02.000Z,97618
2022-12-11T21:55:06.000Z,97617
2022-12-11T21:56:30.000Z,97617
2022-12-11T21:58:34.000Z,97620
2022-12-11T22:01:23.000Z,97622
2022-12-11T22:02:48.000Z,97617
2022-12-11T22:04:51.000Z,97620
2022-12-11T22:06:16.000Z,97621
2022-12-11T22:08:19.000Z,97625
2022-12-11T22:09:44.000Z,97626
2022-12-11T22:11:47.000Z,97625
2022-12-11T22:13:12.000Z,97625
2022-12-11T22:15:15.000Z,97619
2022-12-11T22:16:40.000Z,97620
2022-12-11T22:18:43.000Z,97623
2022-12-11T22:20:08.000Z,97625
2022-12-11T22:22:11.000Z,97627
2022-12-11T22:23:36.000Z,97627
2022-12-11T22:25:39.000Z,97631
2022-12-11T22:27:03.000Z,97633
2022-12-11T22:29:07.000Z,97632
2022-12-11T22:30:31.000Z,97634
2022-12-11T22:32:35.000Z,97632
2022-12-11T22:33:59.000Z,97629
2022-12-11T22:36:03.000Z,97630
2022-12-11T22:38:52.000Z,97625
2022-12-11T22:40:17.000Z,97628
2022-12-11T22:42:20.000Z,97624
2022-12-11T22:43:44.000Z,97621
2022-12-11T22:45:48.000Z,97619
2022-12-11T22:47:13.000Z,97622
2022-12-11T22:49:16.000Z,97625
2022-12-11T22:50:41.000Z,97625
2022-12-11T22:52:44.000Z,97633
2022-12-11T22:54:08.000Z,97632
2022-12-11T22:56:12.000Z,97631
2022-12-11T22:57:36.000Z,97626
2022-12-11T22:59:40.000Z,97627
2022-12-11T23:01:04.000Z,97629
2022-12-11T23:03:08.000Z,97629
2022-12-11T23:04:33.000Z,97628
2022-12-11T23:06:36.000Z,97627
2022-12-11T23:08:00.000Z,97630
2022-12-11T23:10:04.000Z,97632